createdAt,value
2022-10-21T00:02:23.131Z,4.77
2022-10-21T00:05:07.595Z,7.90
2022-10-21T00:07:51.265Z,5.03
2022-10-21T00:13:21.533Z,4.87
2022-10-21T00:16:07.790Z,10.63
2022-10-21T00:18:51.717Z,6.30
2022-10-21T00:21:36.871Z,7.10
2022-10-21T00:24:20.606Z,4.53
2022-10-21T00:27:05.750Z,13.67
2022-10-21T00:29:49.892Z,6.27
2022-10-21T00:32:33.854Z,6.20
2022-10-21T00:35:17.775Z,6.30
2022-10-21T00:38:01.485Z,6.70
2022-10-21T00:40:45.269Z,10.47
2022-10-21T00:43:30.649Z,6.90
2022-10-21T00:46:18.477Z,8.73
2022-10-21T00:49:06.570Z,7.23
2022-10-21T00:51:54.898Z,8.70
2022-10-21T00:54:40.663Z,4.90
2022-10-21T00:57:27.028Z,6.83
2022-10-21T01:00:13.896Z,9.43
2022-10-21T01:02:57.933Z,8.57
2022-10-21T01:05:43.531Z,7.97
2022-10-21T01:08:28.382Z,3.73
2022-10-21T01:11:15.901Z,5.50
2022-10-21T01:14:25.399Z,8.30
2022-10-21T01:17:40.398Z,6.47
2022-10-21T01:20:41.585Z,4.27
2022-10-21T01:24:00.950Z,8.63
2022-10-21T01:27:04.211Z,8.03
2022-10-21T01:30:18.611Z,6.00
2022-10-21T01:33:38.097Z,5.07
2022-10-21T01:36:32.429Z,5.83
2022-10-21T01:39:23.020Z,7.97
2022-10-21T01:42:14.345Z,5.20
2022-10-21T01:45:06.964Z,7.53
2022-10-21T01:47:55.767Z,9.03
2022-10-21T01:50:46.454Z,9.27
2022-10-21T01:53:36.145Z,4.20
2022-10-21T01:56:22.242Z,4.43
2022-10-21T01:59:07.881Z,8.17
2022-10-21T02:01:53.243Z,8.10
2022-10-21T02:04:40.786Z,6.30
2022-10-21T02:07:26.244Z,5.73
2022-10-21T02:10:11.011Z,7.60
2022-10-21T02:12:57.675Z,7.73
2022-10-21T02:16:05.303Z,6.60
2022-10-21T02:18:50.247Z,7.27
2022-10-21T02:21:38.100Z,8.53
2022-10-21T02:24:30.504Z,6.30
2022-10-21T02:27:14.484Z,6.40
2022-10-21T02:30:01.384Z,5.60
2022-10-21T02:32:52.293Z,5.33
2022-10-21T02:35:45.314Z,5.27
2022-10-21T02:38:34.599Z,8.73
2022-10-21T02:41:24.028Z,8.10
2022-10-21T02:44:09.280Z,4.20
2022-10-21T02:46:53.818Z,3.80
2022-10-21T02:49:38.897Z,4.93
2022-10-21T02:52:23.045Z,5.73
2022-10-21T02:55:07.534Z,4.90
2022-10-21T02:57:52.971Z,3.20
2022-10-21T03:00:36.926Z,6.97
2022-10-21T03:03:20.682Z,4.97
2022-10-21T03:06:04.548Z,3.73
2022-10-21T03:08:48.471Z,5.63
2022-10-21T03:11:32.379Z,4.73
2022-10-21T03:14:17.602Z,4.83
2022-10-21T03:17:01.403Z,4.97
2022-10-21T03:19:45.203Z,4.37
2022-10-21T03:22:28.867Z,3.67
2022-10-21T03:25:13.720Z,2.30
2022-10-21T03:27:57.541Z,3.90
2022-10-21T03:30:42.821Z,3.67
2022-10-21T03:33:26.697Z,3.93
2022-10-21T03:36:10.566Z,6.70
2022-10-21T03:38:54.337Z,3.63
2022-10-21T03:41:38.132Z,4.73
2022-10-21T03:44:21.960Z,6.53
2022-10-21T03:47:08.869Z,12.67
2022-10-21T03:49:52.792Z,7.73
2022-10-21T03:52:36.944Z,3.27
2022-10-21T03:55:24.275Z,5.43
2022-10-21T03:58:08.123Z,2.90
2022-10-21T04:00:53.897Z,2.37
2022-10-21T04:03:39.057Z,3.57
2022-10-21T04:06:22.829Z,2.03
2022-10-21T04:09:06.776Z,2.50
2022-10-21T04:11:50.846Z,3.63
2022-10-21T04:14:34.808Z,5.37
2022-10-21T04:17:18.558Z,2.50
2022-10-21T04:20:03.760Z,2.00
2022-10-21T04:22:47.917Z,3.63
2022-10-21T04:25:31.741Z,4.73
2022-10-21T04:28:15.734Z,2.70
2022-10-21T04:30:59.606Z,3.43
2022-10-21T04:33:43.302Z,4.10
2022-10-21T04:36:28.585Z,9.33
2022-10-21T04:39:12.449Z,2.40
2022-10-21T04:41:56.562Z,3.70
2022-10-21T04:44:40.680Z,5.63
2022-10-21T04:47:24.748Z,5.70
2022-10-21T04:50:09.160Z,8.60
2022-10-21T04:52:54.196Z,13.07
2022-10-21T04:55:40.354Z,14.37
2022-10-21T04:58:24.372Z,10.93
2022-10-21T05:01:08.268Z,11.73
2022-10-21T05:03:52.033Z,7.20
2022-10-21T05:06:35.814Z,8.63
2022-10-21T05:09:21.043Z,10.70
2022-10-21T05:12:05.372Z,6.57
2022-10-21T05:14:49.147Z,8.97
2022-10-21T05:17:33.072Z,9.80
2022-10-21T05:20:17.368Z,14.20
2022-10-21T05:23:01.398Z,23.33
2022-10-21T05:25:47.671Z,49.70
2022-10-21T05:28:31.773Z,43.80
2022-10-21T05:31:15.739Z,25.53
2022-10-21T05:33:59.906Z,19.33
2022-10-21T05:36:43.999Z,10.80
2022-10-21T05:39:28.135Z,10.77
2022-10-21T05:42:13.635Z,6.33
2022-10-21T05:44:57.601Z,4.03
2022-10-21T05:47:42.440Z,2.70
2022-10-21T05:50:26.174Z,3.47
2022-10-21T05:53:09.877Z,2.93
2022-10-21T05:55:57.766Z,4.17
2022-10-21T05:58:42.842Z,4.03
2022-10-21T06:01:26.701Z,6.30
2022-10-21T06:04:10.479Z,3.07
2022-10-21T06:06:54.301Z,6.27
2022-10-21T06:09:38.911Z,11.03
2022-10-21T06:12:22.767Z,6.33
2022-10-21T06:15:09.355Z,4.50
2022-10-21T06:17:53.365Z,8.83
2022-10-21T06:20:37.435Z,5.00
2022-10-21T06:23:21.304Z,5.30
2022-10-21T06:26:07.110Z,3.40
2022-10-21T06:28:50.940Z,3.53
2022-10-21T06:31:36.137Z,4.27
2022-10-21T06:34:20.042Z,6.33
2022-10-21T06:37:03.776Z,3.30
2022-10-21T06:39:47.534Z,4.33
2022-10-21T06:42:31.349Z,3.00
2022-10-21T06:45:15.052Z,2.73
2022-10-21T06:48:00.283Z,3.80
2022-10-21T06:50:44.007Z,1.90
2022-10-21T06:53:28.173Z,2.43
2022-10-21T06:56:13.971Z,3.10
2022-10-21T06:58:58.917Z,4.63
2022-10-21T07:01:59.183Z,29.57
2022-10-21T07:04:45.768Z,6.00
2022-10-21T07:07:29.576Z,8.77
2022-10-21T07:10:13.367Z,11.23
2022-10-21T07:12:57.782Z,5.00
2022-10-21T07:15:41.632Z,5.13
2022-10-21T07:18:25.446Z,10.67
2022-10-21T07:21:12.486Z,7.80
2022-10-21T07:23:59.385Z,4.67
2022-10-21T07:26:43.377Z,6.70
2022-10-21T07:29:27.189Z,3.70
2022-10-21T07:32:10.924Z,5.23
2022-10-21T07:34:54.686Z,4.73
2022-10-21T07:37:40.144Z,5.73
2022-10-21T07:40:24.201Z,2.77
2022-10-21T07:43:08.328Z,4.07
2022-10-21T07:45:55.042Z,3.17
2022-10-21T07:48:38.785Z,3.50
2022-10-21T07:51:28.466Z,6.53
2022-10-21T07:54:16.322Z,4.57
2022-10-21T07:57:00.090Z,9.23
2022-10-21T07:59:43.861Z,5.33
2022-10-21T08:02:27.633Z,3.93
2022-10-21T08:05:11.391Z,6.20
2022-10-21T08:07:55.162Z,7.63
2022-10-21T08:10:43.992Z,9.43
2022-10-21T08:13:27.812Z,11.90
2022-10-21T08:16:11.562Z,11.20
2022-10-21T08:18:55.822Z,7.90
2022-10-21T08:21:39.786Z,16.00
2022-10-21T08:24:23.612Z,11.07
2022-10-21T08:27:08.740Z,7.97
2022-10-21T08:29:52.537Z,13.37
2022-10-21T08:32:36.547Z,12.33
2022-10-21T08:35:20.538Z,9.77
2022-10-21T08:38:04.330Z,8.07
2022-10-21T08:40:51.134Z,8.03
2022-10-21T08:43:40.582Z,4.93
2022-10-21T08:46:29.126Z,4.27
2022-10-21T08:49:17.804Z,4.67
2022-10-21T08:52:05.580Z,3.30
2022-10-21T08:54:55.217Z,3.60
2022-10-21T08:57:39.297Z,7.53
2022-10-21T09:00:26.812Z,5.23
2022-10-21T09:03:22.585Z,6.87
2022-10-21T09:06:29.429Z,10.10
2022-10-21T09:09:22.084Z,8.03
2022-10-21T09:12:14.109Z,5.07
2022-10-21T09:15:11.202Z,7.83
2022-10-21T09:18:13.016Z,7.17
2022-10-21T09:21:06.633Z,6.70
2022-10-21T09:23:59.471Z,5.50
2022-10-21T09:26:45.762Z,13.63
2022-10-21T09:29:32.697Z,12.57
2022-10-21T09:32:20.632Z,9.27
2022-10-21T09:35:15.696Z,8.67
2022-10-21T09:38:06.594Z,7.77
2022-10-21T09:40:59.100Z,7.43
2022-10-21T09:43:42.939Z,11.43
2022-10-21T09:46:26.646Z,25.97
2022-10-21T09:49:54.013Z,34.07
2022-10-21T09:52:32.389Z,7.17
2022-10-21T09:55:17.341Z,6.60
2022-10-21T09:58:03.051Z,4.97
2022-10-21T10:00:51.322Z,6.33
2022-10-21T10:03:36.891Z,5.90
2022-10-21T10:06:35.523Z,4.53
2022-10-21T10:09:28.067Z,6.00
2022-10-21T10:12:15.145Z,10.27
2022-10-21T10:15:19.465Z,6.47
2022-10-21T10:18:03.515Z,4.40
2022-10-21T10:20:47.166Z,5.33
2022-10-21T10:23:30.933Z,7.57
2022-10-21T10:26:32.638Z,3.37
2022-10-21T10:29:26.116Z,2.83
2022-10-21T10:32:16.421Z,5.27
2022-10-21T10:35:03.265Z,9.87
2022-10-21T10:37:50.216Z,5.23
2022-10-21T10:40:39.699Z,5.23
2022-10-21T10:43:30.295Z,5.47
2022-10-21T10:46:25.475Z,7.30
2022-10-21T10:49:22.655Z,8.77
2022-10-21T10:52:17.900Z,8.97
2022-10-21T10:55:19.710Z,3.83
2022-10-21T10:58:11.705Z,6.37
2022-10-21T11:01:01.969Z,3.47
2022-10-21T11:03:52.433Z,3.63
2022-10-21T11:06:41.806Z,4.27
2022-10-21T11:09:27.517Z,5.70
2022-10-21T11:12:20.753Z,5.90
2022-10-21T11:15:06.256Z,4.73
2022-10-21T11:18:00.507Z,2.90
2022-10-21T11:20:59.681Z,7.23
2022-10-21T11:24:07.672Z,4.27
2022-10-21T11:26:58.677Z,11.50
2022-10-21T11:29:54.644Z,2.27
2022-10-21T11:32:49.463Z,4.10
2022-10-21T11:35:48.217Z,3.40
2022-10-21T11:38:55.255Z,10.47
2022-10-21T11:41:45.310Z,2.07
2022-10-21T11:44:56.737Z,5.13
2022-10-21T11:47:48.414Z,4.00
2022-10-21T11:50:39.093Z,2.63
2022-10-21T11:53:42.065Z,3.57
2022-10-21T11:56:38.662Z,3.23
2022-10-21T11:59:49.538Z,6.30
2022-10-21T12:02:44.238Z,4.60
2022-10-21T12:05:32.852Z,3.87
2022-10-21T12:08:20.242Z,3.93
2022-10-21T12:11:11.794Z,3.83
2022-10-21T12:13:59.034Z,2.60
2022-10-21T12:16:43.224Z,2.40
2022-10-21T12:19:28.119Z,2.00
2022-10-21T12:22:12.566Z,5.43
2022-10-21T12:25:05.703Z,3.83
2022-10-21T12:27:56.975Z,2.20
2022-10-21T12:30:45.366Z,3.67
2022-10-21T12:33:41.752Z,2.87
2022-10-21T12:36:44.221Z,2.33
2022-10-21T12:39:50.572Z,2.60
2022-10-21T12:42:35.120Z,2.30
2022-10-21T12:45:30.264Z,3.00
2022-10-21T12:48:34.076Z,2.17
2022-10-21T12:51:24.731Z,1.70
2022-10-21T12:54:14.764Z,2.93
2022-10-21T12:57:04.241Z,2.37
2022-10-21T12:59:48.065Z,6.57
2022-10-21T13:02:33.280Z,3.10
2022-10-21T13:05:55.937Z,4.63
2022-10-21T13:08:51.701Z,2.67
2022-10-21T13:11:40.956Z,3.30
2022-10-21T13:14:35.376Z,4.20
2022-10-21T13:17:50.105Z,3.30
2022-10-21T13:20:48.722Z,7.17
2022-10-21T13:23:44.324Z,4.00
2022-10-21T13:26:30.243Z,2.63
2022-10-21T13:29:41.891Z,1.70
2022-10-21T13:32:31.247Z,2.37
2022-10-21T13:35:36.839Z,3.50
2022-10-21T13:38:23.670Z,4.50
2022-10-21T13:41:20.913Z,2.40
2022-10-21T13:44:06.817Z,3.57
2022-10-21T13:46:50.551Z,4.67
2022-10-21T13:49:34.928Z,4.13
2022-10-21T13:52:20.230Z,2.40
2022-10-21T13:55:06.650Z,2.10
2022-10-21T13:57:52.089Z,3.10
2022-10-21T14:00:36.027Z,3.57
2022-10-21T14:03:21.517Z,4.87
2022-10-21T14:06:08.702Z,3.10
2022-10-21T14:08:55.774Z,5.90
2022-10-21T14:11:46.727Z,2.77
2022-10-21T14:14:33.411Z,3.27
2022-10-21T14:17:19.436Z,6.47
2022-10-21T14:20:07.625Z,3.83
2022-10-21T14:22:52.490Z,2.37
2022-10-21T14:25:37.900Z,4.17
2022-10-21T14:28:22.300Z,5.67
2022-10-21T14:33:58.557Z,2.40
2022-10-21T14:37:09.306Z,3.80
2022-10-21T14:40:11.081Z,2.10
2022-10-21T14:42:57.345Z,3.73
2022-10-21T14:45:47.255Z,2.93
2022-10-21T14:48:33.515Z,6.83
2022-10-21T14:51:21.396Z,2.00
2022-10-21T14:54:07.382Z,2.93
2022-10-21T14:56:51.104Z,3.80
2022-10-21T14:59:41.096Z,2.40
2022-10-21T15:02:29.349Z,6.67
2022-10-21T15:05:29.466Z,4.97
2022-10-21T15:08:33.204Z,4.53
2022-10-21T15:11:23.726Z,4.73
2022-10-21T15:14:28.672Z,6.17
2022-10-21T15:17:17.802Z,8.83
2022-10-21T15:20:03.007Z,8.47
2022-10-21T15:22:49.828Z,10.37
2022-10-21T15:25:33.621Z,6.57
2022-10-21T15:28:20.702Z,9.87
2022-10-21T15:31:08.162Z,13.47
2022-10-21T15:33:58.741Z,15.43
2022-10-21T15:36:42.985Z,10.93
2022-10-21T15:39:26.745Z,8.00
2022-10-21T15:42:11.534Z,10.33
2022-10-21T15:44:55.264Z,14.97
2022-10-21T15:47:39.204Z,24.43
2022-10-21T15:50:26.854Z,30.30
2022-10-21T15:53:10.758Z,43.53
2022-10-21T15:55:55.206Z,30.93
2022-10-21T15:58:39.248Z,19.03
2022-10-21T16:01:23.030Z,39.97
2022-10-21T16:04:06.689Z,31.33
2022-10-21T16:06:52.927Z,35.13
2022-10-21T16:09:36.745Z,29.60
2022-10-21T16:12:22.321Z,34.10
2022-10-21T16:15:06.558Z,18.67
2022-10-21T16:17:53.535Z,13.33
2022-10-21T16:20:37.398Z,10.93
2022-10-21T16:23:22.829Z,11.03
2022-10-21T16:26:14.753Z,8.47
2022-10-21T16:28:59.827Z,11.90
2022-10-21T16:31:43.611Z,14.33
2022-10-21T16:34:27.321Z,14.10
2022-10-21T16:37:22.492Z,19.33
2022-10-21T16:40:17.819Z,11.07
2022-10-21T16:43:01.635Z,11.13
2022-10-21T16:45:45.639Z,11.80
2022-10-21T16:48:29.410Z,9.77
2022-10-21T16:51:13.352Z,9.67
2022-10-21T16:53:57.164Z,10.83
2022-10-21T16:56:42.269Z,9.30
2022-10-21T16:59:26.149Z,11.37
2022-10-21T17:02:16.209Z,11.73
2022-10-21T17:05:00.029Z,18.77
2022-10-21T17:07:43.808Z,9.60
2022-10-21T17:10:27.642Z,6.87
2022-10-21T17:13:13.596Z,14.70
2022-10-21T17:15:57.453Z,10.80
2022-10-21T17:18:41.727Z,6.97
2022-10-21T17:21:27.746Z,7.00
2022-10-21T17:24:15.034Z,8.90
2022-10-21T17:26:58.905Z,18.40
2022-10-21T17:29:44.060Z,7.27
2022-10-21T17:32:27.868Z,11.10
2022-10-21T17:35:18.582Z,10.10
2022-10-21T17:38:02.744Z,8.93
2022-10-21T17:40:46.471Z,12.10
2022-10-21T17:43:30.401Z,15.90
2022-10-21T17:46:19.233Z,10.20
2022-10-21T17:49:02.972Z,7.73
2022-10-21T17:51:46.651Z,9.30
2022-10-21T17:54:31.726Z,12.50
2022-10-21T17:57:17.783Z,16.07
2022-10-21T18:00:03.622Z,9.43
2022-10-21T18:02:49.992Z,7.87
2022-10-21T18:05:33.793Z,11.03
2022-10-21T18:08:17.686Z,7.60
2022-10-21T18:11:02.226Z,7.10
2022-10-21T18:13:46.672Z,5.17
2022-10-21T18:16:30.681Z,10.10
2022-10-21T18:19:15.898Z,10.33
2022-10-21T18:21:59.627Z,8.40
2022-10-21T18:24:43.408Z,9.97
2022-10-21T18:27:27.266Z,9.83
2022-10-21T18:30:12.271Z,11.43
2022-10-21T18:32:56.012Z,8.73
2022-10-21T18:35:41.199Z,5.20
2022-10-21T18:38:25.089Z,6.50
2022-10-21T18:41:26.349Z,9.97
2022-10-21T18:44:11.983Z,8.80
2022-10-21T18:46:56.174Z,9.70
2022-10-21T18:49:40.247Z,8.40
2022-10-21T18:52:25.609Z,8.57
2022-10-21T18:55:10.126Z,11.70
2022-10-21T18:57:54.374Z,5.77
2022-10-21T19:00:38.557Z,7.10
2022-10-21T19:03:22.496Z,6.00
2022-10-21T19:06:17.851Z,7.17
2022-10-21T19:09:05.367Z,5.60
2022-10-21T19:11:50.012Z,10.10
2022-10-21T19:14:34.154Z,4.83
2022-10-21T19:17:19.234Z,10.23
2022-10-21T19:20:04.064Z,7.83
2022-10-21T19:22:47.995Z,9.67
2022-10-21T19:25:33.821Z,7.13
2022-10-21T19:28:17.873Z,8.43
2022-10-21T19:31:01.908Z,11.33
2022-10-21T19:33:45.930Z,8.03
2022-10-21T19:36:29.859Z,4.17
2022-10-21T19:39:14.090Z,5.20
2022-10-21T19:41:59.746Z,5.63
2022-10-21T19:44:43.471Z,7.13
2022-10-21T19:47:27.119Z,6.70
2022-10-21T19:52:59.829Z,9.67
2022-10-21T19:55:43.594Z,8.90
2022-10-21T19:58:28.829Z,7.00
2022-10-21T20:01:14.822Z,10.50
2022-10-21T20:03:58.764Z,7.27
2022-10-21T20:06:42.521Z,5.83
2022-10-21T20:09:26.341Z,8.00
2022-10-21T20:12:10.055Z,8.13
2022-10-21T20:14:55.170Z,5.77
2022-10-21T20:17:38.945Z,6.47
2022-10-21T20:20:22.833Z,4.90
2022-10-21T20:23:06.634Z,4.27
2022-10-21T20:25:50.811Z,4.00
2022-10-21T20:28:34.857Z,7.27
2022-10-21T20:31:20.093Z,5.47
2022-10-21T20:34:04.195Z,6.20
2022-10-21T20:36:48.010Z,6.40
2022-10-21T20:39:31.762Z,4.20
2022-10-21T20:42:15.535Z,5.23
2022-10-21T20:44:59.349Z,6.17
2022-10-21T20:47:44.518Z,4.97
2022-10-21T20:50:29.007Z,6.53
2022-10-21T20:53:12.858Z,4.70
2022-10-21T20:55:57.117Z,5.93
2022-10-21T20:58:42.075Z,7.13
2022-10-21T21:01:27.972Z,4.13
2022-10-21T21:04:14.839Z,7.10
2022-10-21T21:06:58.583Z,5.83
2022-10-21T21:10:01.618Z,5.67
2022-10-21T21:12:47.699Z,4.20
2022-10-21T21:15:31.434Z,3.30
2022-10-21T21:18:15.098Z,5.50
2022-10-21T21:21:04.990Z,3.70
2022-10-21T21:23:49.513Z,6.57
2022-10-21T21:26:34.766Z,5.90
2022-10-21T21:29:18.541Z,4.37
2022-10-21T21:32:02.308Z,8.87
2022-10-21T21:34:47.490Z,6.47
2022-10-21T21:37:32.618Z,7.37
2022-10-21T21:40:16.494Z,3.57
2022-10-21T21:43:00.251Z,5.73
2022-10-21T21:45:45.670Z,6.10
2022-10-21T21:48:29.472Z,3.73
2022-10-21T21:51:13.282Z,6.23
2022-10-21T21:53:59.024Z,4.90
2022-10-21T21:56:42.791Z,5.03
2022-10-21T21:59:26.782Z,6.13
2022-10-21T22:02:10.503Z,5.33
2022-10-21T22:04:54.303Z,5.07
2022-10-21T22:07:38.497Z,5.47
2022-10-21T22:10:23.928Z,4.80
2022-10-21T22:13:07.873Z,8.27
2022-10-21T22:15:52.521Z,4.23
2022-10-21T22:18:36.667Z,5.60
2022-10-21T22:21:20.490Z,4.53
2022-10-21T22:24:04.299Z,6.43
2022-10-21T22:26:49.418Z,3.87
2022-10-21T22:29:33.239Z,3.70
2022-10-21T22:32:17.654Z,3.63
2022-10-21T22:35:01.343Z,3.50
2022-10-21T22:37:46.707Z,3.67
2022-10-21T22:40:30.620Z,4.47
2022-10-21T22:43:15.771Z,4.47
2022-10-21T22:46:05.051Z,4.67
2022-10-21T22:49:04.416Z,8.00
2022-10-21T22:51:48.373Z,4.87
2022-10-21T22:54:48.575Z,5.03
2022-10-21T22:57:33.523Z,4.27
2022-10-21T23:00:18.927Z,4.57
2022-10-21T23:03:06.058Z,9.77
2022-10-21T23:05:52.595Z,4.43
2022-10-21T23:08:37.955Z,4.23
2022-10-21T23:11:21.788Z,3.97
2022-10-21T23:14:08.699Z,22.77
2022-10-21T23:16:54.464Z,3.83
2022-10-21T23:19:38.478Z,4.80
2022-10-21T23:22:22.394Z,3.97
2022-10-21T23:25:06.962Z,4.33
2022-10-21T23:27:51.069Z,4.17
2022-10-21T23:30:34.912Z,4.13
2022-10-21T23:33:20.030Z,5.20
2022-10-21T23:36:03.897Z,6.67
2022-10-21T23:38:47.923Z,6.30
2022-10-21T23:41:31.896Z,9.27
2022-10-21T23:44:16.144Z,7.33
2022-10-21T23:46:59.917Z,5.27
2022-10-21T23:49:45.092Z,5.07
2022-10-21T23:52:28.846Z,4.83
2022-10-21T23:55:12.526Z,3.90
2022-10-21T23:57:57.471Z,4.63
